ADDS METAR Data INFO
IDs: Format: Raw Decoded Include TAF

Data at: 0036 UTC 23 Oct 2017

KD39 230014Z AUTO 16005KT 10SM CLR 10/02 A2985 RMK AO2 T00970023
KD39 222353Z AUTO 15006KT 10SM CLR 10/02 A2985 RMK AO2 T01030022 10166 20103
KD39 222333Z AUTO 16006KT 10SM CLR 11/03 A2985 RMK AO2 T01080026
KD39 222314Z AUTO 18007KT 10SM CLR 12/02 A2985 RMK AO2 T01200021
KD39 222253Z AUTO 17007KT 10SM CLR 13/03 A2985 RMK AO2 T01270026
KD39 222233Z AUTO 18007KT 10SM CLR 14/02 A2986 RMK AO2 T01390023
KD39 222214Z AUTO 19006KT 10SM CLR 16/01 A2986 RMK AO2 T01560013
KD39 222153Z AUTO 21007KT 10SM CLR 15/01 A2988 RMK AO2 T01500005
KD39 222133Z AUTO 21013G16KT 10SM CLR 17/00 A2988 RMK AO2 T01650000
KD39 222114Z AUTO 22012G20KT 10SM CLR 17/00 A2988 RMK AO2 T01651001
KD39 222053Z AUTO 24012KT 10SM CLR 16/00 A2988 RMK AO2 T01610000
KD39 222033Z AUTO 23010G19KT 10SM CLR 16/00 A2989 RMK AO2 T01620000
KD39 222014Z AUTO 23012G19KT 10SM CLR 16/00 A2989 RMK AO2 T01620002
KD39 221953Z AUTO 23011KT 10SM CLR 16/01 A2990 RMK AO2 T01600005
KD39 221933Z AUTO 24010G20KT 10SM CLR 16/00 A2991 RMK AO2 T01560000
KD39 221914Z AUTO 23010G17KT 10SM CLR 15/01 A2992 RMK AO2 T01540005
KD39 221853Z AUTO 23012KT 10SM CLR 15/01 A2993 RMK AO2 T01520006
KD39 221834Z AUTO 25012KT 10SM CLR 15/01 A2994 RMK AO2 T01460013
KD39 221814Z AUTO 25012G17KT 10SM CLR 14/03 A2995 RMK AO2 T01420026
KD39 221753Z AUTO 25008G14KT 10SM CLR 14/03 A2996 RMK AO2 T01410030 10141 20045
KD39 221734Z AUTO 25014G17KT 10SM CLR 13/03 A2996 RMK AO2 T01340028
KD39 221714Z AUTO 25012KT 10SM CLR 13/03 A2997 RMK AO2 T01300030
KD39 221653Z AUTO 26012G17KT 10SM CLR 13/03 A2997 RMK AO2 T01270032
KD39 221634Z AUTO 26013KT 10SM CLR 12/03 A2997 RMK AO2 T01190029
KD39 221614Z AUTO 24006KT 10SM CLR 11/03 A2997 RMK AO2 T01130029
KD39 221553Z AUTO 25009KT 10SM CLR 11/03 A2996 RMK AO2 T01060032
KD39 221534Z AUTO 23008KT 10SM CLR 10/04 A2995 RMK AO2 T00950037
KD39 221514Z AUTO 23007KT 10SM CLR 08/04 A2995 RMK AO2 T00820037
KD39 221453Z AUTO 25007KT 10SM CLR 07/03 A2995 RMK AO2 T00740034
KD39 221434Z AUTO 23007KT 10SM CLR 07/03 A2995 RMK AO2 T00670031
KD39 221414Z AUTO 23006KT 10SM CLR 06/03 A2995 RMK AO2 T00640030
KD39 221353Z AUTO 23006KT 10SM CLR 05/03 A2995 RMK AO2 T00500027
KD39 221334Z AUTO 23007KT 10SM CLR 05/03 A2994 RMK AO2 T00460025
KD39 221314Z AUTO 23008KT 10SM CLR 05/03 A2994 RMK AO2 T00480026
KD39 221253Z AUTO 23006KT 10SM CLR 05/03 A2993 RMK AO2 T00480026
KD39 221234Z AUTO 23008KT 10SM CLR 05/03 A2992 RMK AO2 T00450027
KD39 221213Z AUTO 23005KT 10SM CLR 05/03 A2991 RMK AO2 T00460027
KD39 221153Z AUTO 23005KT 10SM CLR 05/03 A2991 RMK AO2 70013 T00460028 10071 20046
KD39 221134Z AUTO 22005KT 10SM CLR 05/03 A2990 RMK AO2 T00490030
KD39 221113Z AUTO 22005KT 10SM CLR 05/03 A2990 RMK AO2 T00500032
KD39 221053Z AUTO 23005KT 10SM CLR 06/04 A2990 RMK AO2 T00600035
KD39 221034Z AUTO 25007KT 10SM CLR 06/04 A2989 RMK AO2 T00610036
KD39 221013Z AUTO 25009KT 10SM CLR 07/04 A2989 RMK AO2 T00670038
KD39 220953Z AUTO 25010KT 10SM CLR 07/04 A2989 RMK AO2 T00700041
KD39 220934Z AUTO 24009KT 10SM CLR 07/04 A2988 RMK AO2 T00700044
KD39 220913Z AUTO 24007KT 10SM CLR 07/04 A2986 RMK AO2 T00680042
KD39 220853Z AUTO 25008KT 10SM CLR 07/04 A2985 RMK AO2 T00700043
KD39 220834Z AUTO 25009KT 10SM CLR 07/04 A2985 RMK AO2 T00700043
KD39 220813Z AUTO 25007KT 10SM CLR 07/04 A2985 RMK AO2 T00680042
KD39 220753Z AUTO 26010G14KT 10SM CLR 07/04 A2986 RMK AO2 T00700042
KD39 220734Z AUTO 25010G14KT 10SM CLR 07/04 A2986 RMK AO2 T00710042
KD39 220713Z AUTO 23007KT 10SM CLR 06/04 A2985 RMK AO2 T00620044
KD39 220653Z AUTO 23007KT 10SM CLR 06/05 A2983 RMK AO2 T00620045
KD39 220634Z AUTO 23007KT 10SM CLR 06/05 A2983 RMK AO2 T00620046
KD39 220613Z AUTO 23008KT 10SM CLR 07/05 A2983 RMK AO2 T00660047
KD39 220553Z AUTO 23011KT 10SM CLR 07/05 A2983 RMK AO2 T00720050 10119 20068 402110068
KD39 220534Z AUTO 23009KT 10SM CLR 07/05 A2983 RMK AO2 T00700050
KD39 220513Z AUTO 23007KT 10SM CLR 07/05 A2981 RMK AO2 T00690050
KD39 220453Z AUTO 22006KT 10SM CLR 08/05 A2980 RMK AO2 T00770053
KD39 220434Z AUTO 25007KT 10SM CLR 08/05 A2979 RMK AO2 T00790053
KD39 220413Z AUTO 25008KT 10SM CLR 08/06 A2979 RMK AO2 T00800055
KD39 220353Z AUTO 25008KT 10SM CLR 08/06 A2979 RMK AO2 T00820055
KD39 220334Z AUTO 25008KT 10SM CLR 08/06 A2980 RMK AO2 LTG DSNT E T00830056
KD39 220313Z AUTO 25009KT 10SM CLR 08/06 A2979 RMK AO2 T00820058
KD39 220254Z AUTO 26007KT 10SM CLR 09/06 A2978 RMK AO2 T00850058
KD39 220234Z AUTO 27012KT 10SM CLR 09/06 A2975 RMK AO2 T00880059
KD39 220213Z AUTO 27013G20KT 10SM CLR 09/06 A2976 RMK AO2 T00940060
KD39 220154Z AUTO 26016G23KT 10SM CLR 10/06 A2976 RMK AO2 T00980060
KD39 220134Z AUTO 26012G19KT 10SM CLR 10/06 A2975 RMK AO2 T00990063
KD39 220113Z AUTO 25009KT 10SM SCT100 10/07 A2975 RMK AO2 T00990066
KD39 220054Z AUTO 25009KT 10SM SCT090 SCT110 10/07 A2972 RMK AO2 T01040069
KD39 220034Z AUTO 26008G16KT 10SM BKN090 BKN120 11/07 A2971 RMK AO2 LTG DSNT SE T01120073
KD39 220013Z AUTO 25011G16KT 10SM SCT070 OVC110 12/08 A2971 RMK AO2 T01170080
KD39 212354Z AUTO 25009KT 10SM SCT041 BKN070 OVC110 12/09 A2970 RMK AO2 LTG DSNT N THRU E 60013 T01180087 10211 20116
KD39 212334Z AUTO 25010KT 10SM RA SCT041 BKN050 OVC080 12/09 A2969 RMK AO2 LTG DSNT N AND NE T01210088
KD39 212313Z AUTO 25009KT 10SM BKN048 BKN055 OVC085 12/09 A2967 RMK AO2 LTG DSNT N AND NE T01220090
KD39 212254Z AUTO 26008KT 10SM TS SCT033 BKN070 OVC085 12/09 A2965 RMK AO2 LTG DSNT NE AND E T01220090
KD39 212234Z AUTO 26013KT 10SM BKN033 OVC043 12/09 A2965 RMK AO2 LTG DSNT N THRU SE T01230091
KD39 212213Z AUTO 27011G15KT 10SM OVC029 13/09 A2963 RMK AO2 LTG DSNT E SE AND NW T01250091
KD39 212154Z AUTO 27013KT 10SM OVC029 13/09 A2962 RMK AO2 LTG DSNT E AND SE T01250092
KD39 212133Z AUTO 27012G20KT 10SM -RA BKN026 OVC030 13/09 A2961 RMK AO2 T01260094
KD39 212114Z AUTO 27015G19KT 10SM SCT008 BKN026 OVC030 13/11 A2959 RMK AO2 T01310107
KD39 212054Z AUTO 26018G22KT 5SM -VCTSRA SCT008 BKN012 OVC035 16/14 A2957 RMK AO2 LTG DSNT ALQS P0013 60013 T01570139
KD39 212033Z AUTO 15014G22KT 10SM VCTS SCT022 BKN029 OVC050 20/16 A2953 RMK AO2 LTG DSNT ALQS T01970160
KD39 212014Z AUTO 14011KT 10SM OVC022 20/16 A2952 RMK AO2 LTG DSNT S THRU W T01970160
KD39 211954Z AUTO 16019G24KT 10SM BKN022 BKN030 BKN060 20/16 A2952 RMK AO2 LTG DSNT SW AND NW T02000160
KD39 211933Z AUTO 15015G22KT 10SM SCT016 SCT034 BKN060 21/16 A2953 RMK AO2 LTG DSNT W T02080163
KD39 211914Z AUTO 16017G23KT 10SM SCT016 BKN027 BKN032 20/16 A2954 RMK AO2 T01970160
KD39 211854Z AUTO 16016G23KT 10SM BKN016 OVC027 19/16 A2955 RMK AO2 T01940159
KD39 211833Z AUTO 16012G19KT 10SM OVC014 19/16 A2956 RMK AO2 LTG DSNT SW T01870157
KD39 211814Z AUTO 15013G19KT 10SM OVC014 18/16 A2956 RMK AO2 T01810155
KD39 211754Z AUTO 15016G21KT 10SM OVC012 18/15 A2956 RMK AO2 T01770153 10177 20161
KD39 211733Z AUTO 15012G17KT 10SM OVC012 17/15 A2956 RMK AO2 T01740152
KD39 211714Z AUTO 15012KT 10SM OVC012 17/15 A2957 RMK AO2 T01710150
KD39 211654Z AUTO 15013KT 10SM OVC012 17/15 A2957 RMK AO2 T01680148
KD39 211633Z AUTO 16013G20KT 10SM OVC012 17/15 A2958 RMK AO2 T01670147
KD39 211614Z AUTO 16014G19KT 10SM OVC012 17/15 A2958 RMK AO2 T01670146
KD39 211553Z AUTO 16017G23KT 10SM OVC014 17/15 A2957 RMK AO2 T01700145
KD39 211533Z AUTO 15016G24KT 10SM OVC016 17/14 A2957 RMK AO2 T01700141
KD39 211514Z AUTO 15012KT 10SM OVC020 17/14 A2957 RMK AO2 T01700140
KD39 211453Z AUTO 15015G20KT 10SM SCT025 BKN039 OVC080 17/14 A2956 RMK AO2 T01700135
KD39 211433Z AUTO 14012G18KT 10SM BKN029 OVC034 17/13 A2957 RMK AO2 T01650132
KD39 211414Z AUTO 15010KT 10SM OVC029 16/13 A2957 RMK AO2 T01640130
KD39 211353Z AUTO 16014KT 10SM OVC025 16/13 A2957 RMK AO2 T01630130
KD39 211333Z AUTO 15014G18KT 10SM BKN019 OVC026 16/13 A2957 RMK AO2 LTG DSNT SE T01620131
KD39 211314Z AUTO 15012G16KT 10SM OVC019 16/13 A2957 RMK AO2 LTG DSNT E T01610131
KD39 211253Z AUTO 15015G22KT 10SM OVC021 16/13 A2957 RMK AO2 T01620130